Terminal Aerodrome Forecast
Issued by NWS

Home | Current Version | Previous Version | Text Only | Print | Product List | Glossary On
Versions: 1 2 3 4 5 6 7 8 9 10 11 12 13 14 15 16 17 18 19 20 21 22 23 24 25 26 27 28 29 30 31 32 33
000
FTUS45 KBOU 301659 AAC
TAFAPA
TAF AMD
KAPA 301659Z 3017/0112 34015G22KT 2SM -SN BR BKN006 OVC014
      TEMPO 3017/3018 1SM -SN BR BKN006
     FM301800 34015KT 5SM -SN BR BKN006 OVC011
      TEMPO 3018/3020 2SM -SN BR OVC005
     FM302000 36017G25KT P6SM VCSH SCT012 OVC025
      TEMPO 3020/3023 4SM -SNRA BKN012
     FM302300 01015KT P6SM VCSH SCT010 OVC020
      TEMPO 3023/0102 2SM -SN BR FEW007 OVC010
     FM010600 34008KT P6SM SCT004 OVC010 PROB30 0106/0112 3SM -SN BR
      BKN007=

USA.gov is the U.S. government's official web portal to all federal, state and local government web resources and services.